sensor_id;sensor_type;location;lat;lon;timestamp;pressure;altitude;pressure_sealevel;temperature;humidity
3150;BME280;32503;47.748;8.960;2023-11-22T00:00:57;97071.47;;;10.02;71.11
3150;BME280;32503;47.748;8.960;2023-11-22T00:03:26;97074.25;;;10.05;71.25
3150;BME280;32503;47.748;8.960;2023-11-22T00:05:53;97071.91;;;10.04;70.58
3150;BME280;32503;47.748;8.960;2023-11-22T00:08:20;97073.47;;;10.05;71.29
3150;BME280;32503;47.748;8.960;2023-11-22T00:10:47;97069.66;;;10.06;70.76
3150;BME280;32503;47.748;8.960;2023-11-22T00:13:14;97067.28;;;10.04;70.27
3150;BME280;32503;47.748;8.960;2023-11-22T00:15:41;97070.09;;;10.08;70.75
3150;BME280;32503;47.748;8.960;2023-11-22T00:18:08;97075.50;;;10.08;70.23
3150;BME280;32503;47.748;8.960;2023-11-22T00:20:36;97070.34;;;10.03;71.25
3150;BME280;32503;47.748;8.960;2023-11-22T00:23:04;97067.88;;;9.98;71.41
3150;BME280;32503;47.748;8.960;2023-11-22T00:25:31;97074.16;;;10.02;71.82
3150;BME280;32503;47.748;8.960;2023-11-22T00:27:58;97075.75;;;10.03;71.51
3150;BME280;32503;47.748;8.960;2023-11-22T00:30:25;97080.00;;;10.04;70.90
3150;BME280;32503;47.748;8.960;2023-11-22T00:32:52;97076.53;;;10.03;70.69
3150;BME280;32503;47.748;8.960;2023-11-22T00:35:19;97076.94;;;10.05;71.26
3150;BME280;32503;47.748;8.960;2023-11-22T00:37:47;97071.03;;;10.00;71.51
3150;BME280;32503;47.748;8.960;2023-11-22T00:40:15;97072.41;;;9.94;72.13
3150;BME280;32503;47.748;8.960;2023-11-22T00:42:42;97073.09;;;9.91;71.62
3150;BME280;32503;47.748;8.960;2023-11-22T00:45:09;97078.50;;;9.91;72.26
3150;BME280;32503;47.748;8.960;2023-11-22T00:47:37;97077.81;;;9.94;72.32
3150;BME280;32503;47.748;8.960;2023-11-22T00:50:06;97071.16;;;9.91;71.35
3150;BME280;32503;47.748;8.960;2023-11-22T00:52:33;97079.47;;;9.98;70.79
3150;BME280;32503;47.748;8.960;2023-11-22T00:55:02;97083.22;;;9.94;71.42
3150;BME280;32503;47.748;8.960;2023-11-22T00:57:29;97090.16;;;9.95;71.46
3150;BME280;32503;47.748;8.960;2023-11-22T00:59:56;97090.84;;;9.92;71.77
3150;BME280;32503;47.748;8.960;2023-11-22T01:02:25;97094.25;;;9.89;71.13
3150;BME280;32503;47.748;8.960;2023-11-22T01:04:52;97098.41;;;9.86;71.61
3150;BME280;32503;47.748;8.960;2023-11-22T01:07:19;97098.41;;;9.86;72.03
3150;BME280;32503;47.748;8.960;2023-11-22T01:09:46;97077.56;;;9.71;71.99
3150;BME280;32503;47.748;8.960;2023-11-22T01:12:14;97102.81;;;9.91;71.90
3150;BME280;32503;47.748;8.960;2023-11-22T01:14:42;97102.47;;;9.92;72.40
3150;BME280;32503;47.748;8.960;2023-11-22T01:17:09;97108.31;;;9.94;71.87
3150;BME280;32503;47.748;8.960;2023-11-22T01:19:36;97109.06;;;9.95;71.96
3150;BME280;32503;47.748;8.960;2023-11-22T01:22:03;97107.97;;;9.96;71.28
3150;BME280;32503;47.748;8.960;2023-11-22T01:24:30;97106.38;;;9.95;71.55
3150;BME280;32503;47.748;8.960;2023-11-22T01:26:57;97103.25;;;9.93;71.99
3150;BME280;32503;47.748;8.960;2023-11-22T01:29:26;97103.91;;;9.90;71.98
3150;BME280;32503;47.748;8.960;2023-11-22T01:31:54;97104.81;;;9.94;71.65
3150;BME280;32503;47.748;8.960;2023-11-22T01:34:22;97114.47;;;9.95;72.22
3150;BME280;32503;47.748;8.960;2023-11-22T01:36:50;97107.63;;;9.97;71.65
3150;BME280;32503;47.748;8.960;2023-11-22T01:39:17;97108.63;;;9.93;71.52
3150;BME280;32503;47.748;8.960;2023-11-22T01:41:44;97107.31;;;9.86;72.04
3150;BME280;32503;47.748;8.960;2023-11-22T01:44:12;97109.94;;;9.83;72.45
3150;BME280;32503;47.748;8.960;2023-11-22T01:46:40;97109.13;;;9.82;72.02
3150;BME280;32503;47.748;8.960;2023-11-22T01:49:10;97098.13;;;9.75;72.17
3150;BME280;32503;47.748;8.960;2023-11-22T01:51:37;97124.31;;;9.87;71.88
3150;BME280;32503;47.748;8.960;2023-11-22T01:54:09;97103.84;;;9.74;72.15
3150;BME280;32503;47.748;8.960;2023-11-22T01:56:38;97119.25;;;9.85;72.34
3150;BME280;32503;47.748;8.960;2023-11-22T01:59:06;97125.09;;;9.87;72.50
3150;BME280;32503;47.748;8.960;2023-11-22T02:01:34;97117.75;;;9.88;72.00
3150;BME280;32503;47.748;8.960;2023-11-22T02:04:03;97123.97;;;9.89;71.89
3150;BME280;32503;47.748;8.960;2023-11-22T02:06:31;97128.22;;;9.90;72.55
3150;BME280;32503;47.748;8.960;2023-11-22T02:08:58;97122.28;;;9.84;71.97
3150;BME280;32503;47.748;8.960;2023-11-22T02:11:25;97122.28;;;9.84;72.73
3150;BME280;32503;47.748;8.960;2023-11-22T02:13:53;97117.66;;;9.84;72.20
3150;BME280;32503;47.748;8.960;2023-11-22T02:16:20;97121.94;;;9.85;72.31
3150;BME280;32503;47.748;8.960;2023-11-22T02:18:48;97125.31;;;9.82;72.10
3150;BME280;32503;47.748;8.960;2023-11-22T02:21:18;97114.47;;;9.66;73.00
3150;BME280;32503;47.748;8.960;2023-11-22T02:23:48;97129.94;;;9.82;72.17
3150;BME280;32503;47.748;8.960;2023-11-22T02:26:15;97129.94;;;9.82;72.20
3150;BME280;32503;47.748;8.960;2023-11-22T02:28:43;97134.22;;;9.83;71.94
3150;BME280;32503;47.748;8.960;2023-11-22T02:31:10;97125.75;;;9.84;72.82
3150;BME280;32503;47.748;8.960;2023-11-22T02:33:38;97143.31;;;9.91;72.33
3150;BME280;32503;47.748;8.960;2023-11-22T02:36:06;97138.59;;;9.87;72.58
3150;BME280;32503;47.748;8.960;2023-11-22T02:38:34;97146.25;;;9.85;72.52
3150;BME280;32503;47.748;8.960;2023-11-22T02:41:02;97134.38;;;9.74;72.47
3150;BME280;32503;47.748;8.960;2023-11-22T02:43:30;97145.38;;;9.81;73.17
3150;BME280;32503;47.748;8.960;2023-11-22T02:45:57;97132.09;;;9.76;73.35
3150;BME280;32503;47.748;8.960;2023-11-22T02:48:24;97142.56;;;9.78;73.27
3150;BME280;32503;47.748;8.960;2023-11-22T02:50:51;97146.03;;;9.78;73.43
3150;BME280;32503;47.748;8.960;2023-11-22T02:53:19;97142.19;;;9.79;73.43
3150;BME280;32503;47.748;8.960;2023-11-22T02:55:47;97138.19;;;9.73;72.99
3150;BME280;32503;47.748;8.960;2023-11-22T02:58:16;97132.00;;;9.73;72.90
3150;BME280;32503;47.748;8.960;2023-11-22T03:00:43;97138.97;;;9.74;73.11
3150;BME280;32503;47.748;8.960;2023-11-22T03:03:10;97142.00;;;9.72;72.94
3150;BME280;32503;47.748;8.960;2023-11-22T03:05:38;97134.94;;;9.67;73.73
3150;BME280;32503;47.748;8.960;2023-11-22T03:08:05;97136.28;;;9.61;74.31
3150;BME280;32503;47.748;8.960;2023-11-22T03:10:33;97140.81;;;9.57;73.92
3150;BME280;32503;47.748;8.960;2023-11-22T03:13:01;97141.47;;;9.54;74.12
3150;BME280;32503;47.748;8.960;2023-11-22T03:15:31;97142.50;;;9.49;74.94
3150;BME280;32503;47.748;8.960;2023-11-22T03:17:58;97145.56;;;9.48;74.69
3150;BME280;32503;47.748;8.960;2023-11-22T03:20:27;97151.38;;;9.50;74.11
3150;BME280;32503;47.748;8.960;2023-11-22T03:22:57;97142.25;;;9.55;74.59
3150;BME280;32503;47.748;8.960;2023-11-22T03:25:24;97157.09;;;9.61;74.24
3150;BME280;32503;47.748;8.960;2023-11-22T03:27:51;97157.00;;;9.57;74.39
3150;BME280;32503;47.748;8.960;2023-11-22T03:30:18;97158.81;;;9.53;74.36
3150;BME280;32503;47.748;8.960;2023-11-22T03:32:47;97159.16;;;9.52;74.06
3150;BME280;32503;47.748;8.960;2023-11-22T03:35:15;97155.31;;;9.53;74.14
3150;BME280;32503;47.748;8.960;2023-11-22T03:37:42;97158.91;;;9.57;73.87
3150;BME280;32503;47.748;8.960;2023-11-22T03:40:11;97151.84;;;9.52;74.15
3150;BME280;32503;47.748;8.960;2023-11-22T03:42:39;97160.03;;;9.56;74.45
3150;BME280;32503;47.748;8.960;2023-11-22T03:45:07;97146.00;;;9.50;74.20
3150;BME280;32503;47.748;8.960;2023-11-22T03:47:35;97163.63;;;9.60;74.17
3150;BME280;32503;47.748;8.960;2023-11-22T03:50:06;97165.66;;;9.63;73.48
3150;BME280;32503;47.748;8.960;2023-11-22T03:52:33;97169.38;;;9.58;74.08
3150;BME280;32503;47.748;8.960;2023-11-22T03:55:00;97168.13;;;9.56;74.70
3150;BME280;32503;47.748;8.960;2023-11-22T03:57:28;97176.91;;;9.53;74.17
3150;BME280;32503;47.748;8.960;2023-11-22T03:59:55;97181.41;;;9.48;74.81
3150;BME280;32503;47.748;8.960;2023-11-22T04:02:23;97183.88;;;9.54;74.75
3150;BME280;32503;47.748;8.960;2023-11-22T04:04:50;97195.13;;;9.56;74.23
3150;BME280;32503;47.748;8.960;2023-11-22T04:07:18;97188.03;;;9.51;74.98
3150;BME280;32503;47.748;8.960;2023-11-22T04:09:45;97194.69;;;9.54;74.71
3150;BME280;32503;47.748;8.960;2023-11-22T04:12:12;97193.19;;;9.56;74.88
3150;BME280;32503;47.748;8.960;2023-11-22T04:14:39;97197.16;;;9.59;74.14
3150;BME280;32503;47.748;8.960;2023-11-22T04:17:06;97192.53;;;9.59;74.97
3150;BME280;32503;47.748;8.960;2023-11-22T04:19:33;97191.75;;;9.59;73.96
3150;BME280;32503;47.748;8.960;2023-11-22T04:22:00;97199.84;;;9.59;74.81
3150;BME280;32503;47.748;8.960;2023-11-22T04:24:28;97197.16;;;9.59;75.07
3150;BME280;32503;47.748;8.960;2023-11-22T04:26:55;97210.31;;;9.60;74.15
3150;BME280;32503;47.748;8.960;2023-11-22T04:29:22;97213.44;;;9.62;73.58
3150;BME280;32503;47.748;8.960;2023-11-22T04:31:49;97210.41;;;9.64;73.66
3150;BME280;32503;47.748;8.960;2023-11-22T04:34:16;97221.88;;;9.61;74.02
3150;BME280;32503;47.748;8.960;2023-11-22T04:36:43;97223.94;;;9.52;74.34
3150;BME280;32503;47.748;8.960;2023-11-22T04:39:12;97223.13;;;9.51;74.27
3150;BME280;32503;47.748;8.960;2023-11-22T04:41:41;97224.94;;;9.47;74.61
3150;BME280;32503;47.748;8.960;2023-11-22T04:44:08;97232.91;;;9.43;73.86
3150;BME280;32503;47.748;8.960;2023-11-22T04:46:35;97227.41;;;9.40;74.67
3150;BME280;32503;47.748;8.960;2023-11-22T04:49:02;97231.34;;;9.42;74.49
3150;BME280;32503;47.748;8.960;2023-11-22T04:51:29;97230.66;;;9.45;74.56
3150;BME280;32503;47.748;8.960;2023-11-22T04:53:56;97216.72;;;9.43;74.69
3150;BME280;32503;47.748;8.960;2023-11-22T04:56:23;97233.34;;;9.58;74.75
3150;BME280;32503;47.748;8.960;2023-11-22T04:58:51;97232.91;;;9.56;74.35
3150;BME280;32503;47.748;8.960;2023-11-22T05:01:19;97236.06;;;9.58;73.65
3150;BME280;32503;47.748;8.960;2023-11-22T05:03:46;97243.25;;;9.54;74.22
3150;BME280;32503;47.748;8.960;2023-11-22T05:06:13;97244.38;;;9.53;74.32
3150;BME280;32503;47.748;8.960;2023-11-22T05:08:40;97245.63;;;9.55;74.48
3150;BME280;32503;47.748;8.960;2023-11-22T05:11:08;97253.63;;;9.52;74.94
3150;BME280;32503;47.748;8.960;2023-11-22T05:13:35;97258.56;;;9.49;74.40
3150;BME280;32503;47.748;8.960;2023-11-22T05:16:04;97260.22;;;9.54;74.83
3150;BME280;32503;47.748;8.960;2023-11-22T05:18:32;97264.19;;;9.57;75.42
3150;BME280;32503;47.748;8.960;2023-11-22T05:20:59;97271.38;;;9.53;75.21
3150;BME280;32503;47.748;8.960;2023-11-22T05:23:26;97285.78;;;9.57;74.57
3150;BME280;32503;47.748;8.960;2023-11-22T05:25:53;97286.22;;;9.59;75.40
3150;BME280;32503;47.748;8.960;2023-11-22T05:28:20;97301.28;;;9.60;74.87
3150;BME280;32503;47.748;8.960;2023-11-22T05:30:49;97295.22;;;9.63;74.27
3150;BME280;32503;47.748;8.960;2023-11-22T05:33:18;97300.50;;;9.59;75.16
3150;BME280;32503;47.748;8.960;2023-11-22T05:35:45;97307.03;;;9.58;74.56
3150;BME280;32503;47.748;8.960;2023-11-22T05:38:12;97307.38;;;9.57;74.63
3150;BME280;32503;47.748;8.960;2023-11-22T05:40:39;97303.31;;;9.51;73.27
3150;BME280;32503;47.748;8.960;2023-11-22T05:43:08;97311.63;;;9.45;72.29
3150;BME280;32503;47.748;8.960;2023-11-22T05:45:35;97320.63;;;9.37;71.44
3150;BME280;32503;47.748;8.960;2023-11-22T05:48:02;97312.41;;;9.34;70.33
3150;BME280;32503;47.748;8.960;2023-11-22T05:50:31;97318.69;;;9.25;70.68
3150;BME280;32503;47.748;8.960;2023-11-22T05:52:58;97325.50;;;9.23;70.38
3150;BME280;32503;47.748;8.960;2023-11-22T05:55:25;97328.06;;;9.07;69.87
3150;BME280;32503;47.748;8.960;2023-11-22T05:57:53;97322.53;;;9.03;68.74
3150;BME280;32503;47.748;8.960;2023-11-22T06:00:20;97337.69;;;8.96;68.51
3150;BME280;32503;47.748;8.960;2023-11-22T06:02:47;97342.25;;;8.83;69.16
3150;BME280;32503;47.748;8.960;2023-11-22T06:05:15;97331.41;;;8.70;68.43
3150;BME280;32503;47.748;8.960;2023-11-22T06:07:43;97323.53;;;8.65;68.97
3150;BME280;32503;47.748;8.960;2023-11-22T06:10:10;97332.47;;;8.57;68.65
3150;BME280;32503;47.748;8.960;2023-11-22T06:12:38;97343.91;;;8.54;68.67
3150;BME280;32503;47.748;8.960;2023-11-22T06:15:07;97336.22;;;8.44;68.98
3150;BME280;32503;47.748;8.960;2023-11-22T06:17:35;97340.97;;;8.38;69.09
3150;BME280;32503;47.748;8.960;2023-11-22T06:20:10;97331.19;;;8.33;69.06
3150;BME280;32503;47.748;8.960;2023-11-22T06:22:37;97343.34;;;8.40;68.80
3150;BME280;32503;47.748;8.960;2023-11-22T06:25:08;97347.16;;;8.39;68.63
3150;BME280;32503;47.748;8.960;2023-11-22T06:27:36;97362.75;;;8.33;67.87
3150;BME280;32503;47.748;8.960;2023-11-22T06:30:05;97367.63;;;8.31;67.89
3150;BME280;32503;47.748;8.960;2023-11-22T06:32:33;97365.94;;;8.26;68.09
3150;BME280;32503;47.748;8.960;2023-11-22T06:35:00;97366.44;;;8.20;68.04
3150;BME280;32503;47.748;8.960;2023-11-22T06:37:28;97381.16;;;8.22;67.58
3150;BME280;32503;47.748;8.960;2023-11-22T06:39:59;97357.63;;;8.10;67.71
3150;BME280;32503;47.748;8.960;2023-11-22T06:42:33;97358.28;;;8.07;67.49
3150;BME280;32503;47.748;8.960;2023-11-22T06:45:00;97382.28;;;8.21;67.63
3150;BME280;32503;47.748;8.960;2023-11-22T06:47:27;97380.25;;;8.18;67.92
3150;BME280;32503;47.748;8.960;2023-11-22T06:49:54;97392.94;;;8.18;67.75
3150;BME280;32503;47.748;8.960;2023-11-22T06:52:21;97397.84;;;8.15;67.85
3150;BME280;32503;47.748;8.960;2023-11-22T06:54:48;97412.63;;;8.01;68.67
3150;BME280;32503;47.748;8.960;2023-11-22T06:57:16;97423.13;;;7.93;68.86
3150;BME280;32503;47.748;8.960;2023-11-22T06:59:44;97419.00;;;7.96;68.72
3150;BME280;32503;47.748;8.960;2023-11-22T07:02:11;97420.13;;;7.95;68.74
3150;BME280;32503;47.748;8.960;2023-11-22T07:04:40;97424.41;;;7.96;68.71
3150;BME280;32503;47.748;8.960;2023-11-22T07:07:07;97431.81;;;7.99;68.85
3150;BME280;32503;47.748;8.960;2023-11-22T07:09:36;97427.88;;;7.96;68.15
3150;BME280;32503;47.748;8.960;2023-11-22T07:12:05;97442.72;;;8.03;68.55
3150;BME280;32503;47.748;8.960;2023-11-22T07:14:33;97445.09;;;8.04;68.41
3150;BME280;32503;47.748;8.960;2023-11-22T07:17:02;97452.56;;;7.98;68.89
3150;BME280;32503;47.748;8.960;2023-11-22T07:19:29;97431.22;;;7.85;68.20
3150;BME280;32503;47.748;8.960;2023-11-22T07:21:56;97435.06;;;7.75;67.21
3150;BME280;32503;47.748;8.960;2023-11-22T07:24:23;97453.25;;;7.78;66.46
3150;BME280;32503;47.748;8.960;2023-11-22T07:26:50;97465.94;;;7.77;66.50
3150;BME280;32503;47.748;8.960;2023-11-22T07:29:18;97460.91;;;7.58;66.34
3150;BME280;32503;47.748;8.960;2023-11-22T07:31:47;97471.34;;;7.69;65.44
3150;BME280;32503;47.748;8.960;2023-11-22T07:34:15;97467.41;;;7.66;65.43
3150;BME280;32503;47.748;8.960;2023-11-22T07:36:44;97467.25;;;7.54;65.19
3150;BME280;32503;47.748;8.960;2023-11-22T07:39:12;97480.69;;;7.63;64.48
3150;BME280;32503;47.748;8.960;2023-11-22T07:41:40;97471.34;;;7.51;65.26
3150;BME280;32503;47.748;8.960;2023-11-22T07:44:07;97479.28;;;7.56;64.44
3150;BME280;32503;47.748;8.960;2023-11-22T07:46:34;97481.19;;;7.56;64.49
3150;BME280;32503;47.748;8.960;2023-11-22T07:49:04;97485.13;;;7.50;64.54
3150;BME280;32503;47.748;8.960;2023-11-22T07:51:33;97483.41;;;7.45;64.00
3150;BME280;32503;47.748;8.960;2023-11-22T07:54:00;97494.97;;;7.37;63.29
3150;BME280;32503;47.748;8.960;2023-11-22T07:56:27;97507.78;;;7.40;63.92
3150;BME280;32503;47.748;8.960;2023-11-22T07:58:54;97517.59;;;7.36;63.83
3150;BME280;32503;47.748;8.960;2023-11-22T08:01:21;97521.53;;;7.30;63.68
3150;BME280;32503;47.748;8.960;2023-11-22T08:03:49;97524.84;;;7.35;63.76
3150;BME280;32503;47.748;8.960;2023-11-22T08:06:17;97532.00;;;7.40;63.57
3150;BME280;32503;47.748;8.960;2023-11-22T08:08:46;97536.59;;;7.31;62.56
3150;BME280;32503;47.748;8.960;2023-11-22T08:11:13;97534.69;;;7.40;62.70
3150;BME280;32503;47.748;8.960;2023-11-22T08:13:41;97542.28;;;7.38;63.11
3150;BME280;32503;47.748;8.960;2023-11-22T08:16:11;97535.63;;;7.27;62.42
3150;BME280;32503;47.748;8.960;2023-11-22T08:18:39;97545.59;;;7.44;62.41
3150;BME280;32503;47.748;8.960;2023-11-22T08:21:06;97560.00;;;7.48;62.54
3150;BME280;32503;47.748;8.960;2023-11-22T08:23:34;97562.38;;;7.49;62.85
3150;BME280;32503;47.748;8.960;2023-11-22T08:26:02;97563.66;;;7.43;62.79
3150;BME280;32503;47.748;8.960;2023-11-22T08:28:30;97562.06;;;7.42;62.67
3150;BME280;32503;47.748;8.960;2023-11-22T08:30:57;97559.38;;;7.42;62.86
3150;BME280;32503;47.748;8.960;2023-11-22T08:33:24;97564.59;;;7.38;62.98
3150;BME280;32503;47.748;8.960;2023-11-22T08:35:51;97564.75;;;7.42;63.21
3150;BME280;32503;47.748;8.960;2023-11-22T08:38:24;97571.88;;;7.29;63.05
3150;BME280;32503;47.748;8.960;2023-11-22T08:40:53;97572.03;;;7.33;63.22
3150;BME280;32503;47.748;8.960;2023-11-22T08:43:22;97573.91;;;7.32;63.40
3150;BME280;32503;47.748;8.960;2023-11-22T08:45:51;97582.31;;;7.31;64.18
3150;BME280;32503;47.748;8.960;2023-11-22T08:48:18;97585.78;;;7.31;63.82
3150;BME280;32503;47.748;8.960;2023-11-22T08:50:45;97581.03;;;7.28;63.43
3150;BME280;32503;47.748;8.960;2023-11-22T08:53:14;97589.41;;;7.27;63.31
3150;BME280;32503;47.748;8.960;2023-11-22T08:55:41;97598.44;;;7.22;63.31
3150;BME280;32503;47.748;8.960;2023-11-22T08:58:10;97602.22;;;7.21;63.35
3150;BME280;32503;47.748;8.960;2023-11-22T09:00:38;97586.22;;;7.07;63.27
3150;BME280;32503;47.748;8.960;2023-11-22T09:03:07;97615.97;;;7.19;63.42
3150;BME280;32503;47.748;8.960;2023-11-22T09:05:34;97628.31;;;7.20;62.99
3150;BME280;32503;47.748;8.960;2023-11-22T09:08:02;97630.88;;;7.26;62.21
3150;BME280;32503;47.748;8.960;2023-11-22T09:10:30;97635.13;;;7.27;62.49
3150;BME280;32503;47.748;8.960;2023-11-22T09:12:57;97631.34;;;7.28;62.31
3150;BME280;32503;47.748;8.960;2023-11-22T09:15:25;97648.13;;;7.33;62.19
3150;BME280;32503;47.748;8.960;2023-11-22T09:17:56;97655.25;;;7.29;62.71
3150;BME280;32503;47.748;8.960;2023-11-22T09:20:24;97656.50;;;7.32;62.09
3150;BME280;32503;47.748;8.960;2023-11-22T09:22:52;97645.09;;;7.26;62.70
3150;BME280;32503;47.748;8.960;2023-11-22T09:25:21;97624.00;;;7.02;61.86
3150;BME280;32503;47.748;8.960;2023-11-22T09:27:52;97650.66;;;7.30;62.65
3150;BME280;32503;47.748;8.960;2023-11-22T09:30:23;97623.25;;;7.10;62.24
3150;BME280;32503;47.748;8.960;2023-11-22T09:33:03;97650.00;;;7.24;61.55
3150;BME280;32503;47.748;8.960;2023-11-22T09:35:31;97613.09;;;7.07;60.64
3150;BME280;32503;47.748;8.960;2023-11-22T09:37:59;97640.50;;;7.18;61.17
3150;BME280;32503;47.748;8.960;2023-11-22T09:40:26;97648.25;;;7.19;60.97
3150;BME280;32503;47.748;8.960;2023-11-22T09:42:55;97649.84;;;7.20;60.63
3150;BME280;32503;47.748;8.960;2023-11-22T09:45:23;97636.41;;;7.20;60.48
3150;BME280;32503;47.748;8.960;2023-11-22T09:47:51;97635.91;;;7.18;60.52
3150;BME280;32503;47.748;8.960;2023-11-22T09:50:34;97641.63;;;7.26;60.73
3150;BME280;32503;47.748;8.960;2023-11-22T09:53:10;97638.47;;;7.24;nan
3150;BME280;32503;47.748;8.960;2023-11-22T09:55:37;97638.28;;;7.29;60.42
3150;BME280;32503;47.748;8.960;2023-11-22T09:58:06;97599.00;;;7.01;61.00
3150;BME280;32503;47.748;8.960;2023-11-22T10:00:33;97628.03;;;7.31;60.65
3150;BME280;32503;47.748;8.960;2023-11-22T10:03:00;97627.38;;;7.34;61.16
3150;BME280;32503;47.748;8.960;2023-11-22T10:05:29;97637.53;;;7.37;61.07
3150;BME280;32503;47.748;8.960;2023-11-22T10:07:56;97635.47;;;7.43;60.55
3150;BME280;32503;47.748;8.960;2023-11-22T10:10:24;97631.38;;;7.45;60.45
3150;BME280;32503;47.748;8.960;2023-11-22T10:12:54;97638.31;;;7.37;60.50
3150;BME280;32503;47.748;8.960;2023-11-22T10:15:23;97640.22;;;7.37;61.15
3150;BME280;32503;47.748;8.960;2023-11-22T10:17:55;97644.66;;;7.33;61.01
3150;BME280;32503;47.748;8.960;2023-11-22T10:20:24;97640.53;;;7.35;60.58
3150;BME280;32503;47.748;8.960;2023-11-22T10:22:53;97646.06;;;7.39;60.37
3150;BME280;32503;47.748;8.960;2023-11-22T10:25:21;97656.22;;;7.42;60.19
3150;BME280;32503;47.748;8.960;2023-11-22T10:27:48;97667.44;;;7.44;60.17
3150;BME280;32503;47.748;8.960;2023-11-22T10:30:17;97657.97;;;7.47;59.93
3150;BME280;32503;47.748;8.960;2023-11-22T10:32:45;97648.63;;;7.44;59.98
3150;BME280;32503;47.748;8.960;2023-11-22T10:35:12;97651.78;;;7.46;60.43
3150;BME280;32503;47.748;8.960;2023-11-22T10:37:41;97643.56;;;7.51;60.00
3150;BME280;32503;47.748;8.960;2023-11-22T10:40:12;97658.59;;;7.52;60.01
3150;BME280;32503;47.748;8.960;2023-11-22T10:42:41;97645.47;;;7.59;60.00
3150;BME280;32503;47.748;8.960;2023-11-22T10:45:10;97647.06;;;7.69;59.67
3150;BME280;32503;47.748;8.960;2023-11-22T10:47:38;97657.97;;;7.73;60.17
3150;BME280;32503;47.748;8.960;2023-11-22T10:50:09;97649.91;;;7.73;59.89
3150;BME280;32503;47.748;8.960;2023-11-22T10:52:40;97654.97;;;7.74;59.92
3150;BME280;32503;47.748;8.960;2023-11-22T10:55:11;97649.75;;;7.78;59.93
3150;BME280;32503;47.748;8.960;2023-11-22T10:57:45;97639.94;;;7.73;60.20
3150;BME280;32503;47.748;8.960;2023-11-22T11:00:16;97661.03;;;7.80;59.95
3150;BME280;32503;47.748;8.960;2023-11-22T11:02:58;97667.19;;;7.72;60.42
3150;BME280;32503;47.748;8.960;2023-11-22T11:05:30;97645.94;;;7.53;60.13
3150;BME280;32503;47.748;8.960;2023-11-22T11:08:02;97662.09;;;7.62;60.00
3150;BME280;32503;47.748;8.960;2023-11-22T11:10:40;97658.16;;;7.68;60.22
3150;BME280;32503;47.748;8.960;2023-11-22T11:13:08;97667.31;;;7.67;60.10
3150;BME280;32503;47.748;8.960;2023-11-22T11:15:36;97681.41;;;7.72;59.87
3150;BME280;32503;47.748;8.960;2023-11-22T11:18:04;97680.47;;;7.68;59.79
3150;BME280;32503;47.748;8.960;2023-11-22T11:20:32;97684.41;;;7.71;59.81
3150;BME280;32503;47.748;8.960;2023-11-22T11:23:04;97683.34;;;7.72;59.62
3150;BME280;32503;47.748;8.960;2023-11-22T11:25:32;97668.56;;;7.60;60.07
3150;BME280;32503;47.748;8.960;2023-11-22T11:28:03;97682.41;;;7.76;59.96
3150;BME280;32503;47.748;8.960;2023-11-22T11:30:46;97682.72;;;7.75;60.07
3150;BME280;32503;47.748;8.960;2023-11-22T11:33:15;97681.25;;;7.69;59.33
3150;BME280;32503;47.748;8.960;2023-11-22T11:35:45;97693.31;;;7.80;59.56
3150;BME280;32503;47.748;8.960;2023-11-22T11:38:13;97700.75;;;7.83;59.52
3150;BME280;32503;47.748;8.960;2023-11-22T11:40:42;97707.25;;;7.82;59.08
3150;BME280;32503;47.748;8.960;2023-11-22T11:43:11;97704.72;;;7.77;58.31
3150;BME280;32503;47.748;8.960;2023-11-22T11:45:40;97699.31;;;7.77;58.47
3150;BME280;32503;47.748;8.960;2023-11-22T11:48:12;97702.63;;;7.74;57.61
3150;BME280;32503;47.748;8.960;2023-11-22T11:50:40;97698.53;;;7.68;57.42
3150;BME280;32503;47.748;8.960;2023-11-22T11:53:08;97702.94;;;7.64;57.77
3150;BME280;32503;47.748;8.960;2023-11-22T11:55:37;97696.78;;;7.63;57.73
3150;BME280;32503;47.748;8.960;2023-11-22T11:58:06;97681.22;;;7.51;57.36
3150;BME280;32503;47.748;8.960;2023-11-22T12:00:36;97686.00;;;7.54;58.04
3150;BME280;32503;47.748;8.960;2023-11-22T12:03:07;97683.13;;;7.51;57.72
3150;BME280;32503;47.748;8.960;2023-11-22T12:05:35;97666.81;;;7.47;57.42
3150;BME280;32503;47.748;8.960;2023-11-22T12:08:03;97646.72;;;7.36;57.69
3150;BME280;32503;47.748;8.960;2023-11-22T12:10:30;97675.38;;;7.58;57.46
3150;BME280;32503;47.748;8.960;2023-11-22T12:12:57;97677.28;;;7.49;57.86
3150;BME280;32503;47.748;8.960;2023-11-22T12:15:25;97670.00;;;7.49;57.89
3150;BME280;32503;47.748;8.960;2023-11-22T12:17:53;97670.63;;;7.46;57.65
3150;BME280;32503;47.748;8.960;2023-11-22T12:20:23;97672.53;;;7.46;57.91
3150;BME280;32503;47.748;8.960;2023-11-22T12:22:52;97675.53;;;7.44;57.83
3150;BME280;32503;47.748;8.960;2023-11-22T12:25:19;97676.50;;;7.48;57.96
3150;BME280;32503;47.748;8.960;2023-11-22T12:27:47;97682.03;;;7.43;58.14
3150;BME280;32503;47.748;8.960;2023-11-22T12:30:31;97680.28;;;7.47;58.57
3150;BME280;32503;47.748;8.960;2023-11-22T12:33:05;97687.72;;;7.50;57.85
3150;BME280;32503;47.748;8.960;2023-11-22T12:35:33;97703.06;;;7.50;58.15
3150;BME280;32503;47.748;8.960;2023-11-22T12:38:01;97693.09;;;7.42;58.35
3150;BME280;32503;47.748;8.960;2023-11-22T12:40:29;97715.13;;;7.52;58.14
3150;BME280;32503;47.748;8.960;2023-11-22T12:43:00;97721.91;;;7.50;57.72
3150;BME280;32503;47.748;8.960;2023-11-22T12:45:28;97705.25;;;7.39;57.63
3150;BME280;32503;47.748;8.960;2023-11-22T12:47:56;97713.19;;;7.44;57.63
3150;BME280;32503;47.748;8.960;2023-11-22T12:50:34;97703.50;;;7.26;57.07
3150;BME280;32503;47.748;8.960;2023-11-22T12:53:12;97732.94;;;7.31;57.20
3150;BME280;32503;47.748;8.960;2023-11-22T12:55:42;97718.13;;;7.11;57.09
3150;BME280;32503;47.748;8.960;2023-11-22T12:58:11;97726.06;;;7.16;57.81
3150;BME280;32503;47.748;8.960;2023-11-22T13:00:38;97725.59;;;7.14;57.69
3150;BME280;32503;47.748;8.960;2023-11-22T13:03:06;97740.59;;;7.06;58.63
3150;BME280;32503;47.748;8.960;2023-11-22T13:05:35;97739.78;;;7.06;57.90
3150;BME280;32503;47.748;8.960;2023-11-22T13:08:03;97743.41;;;7.01;57.83
3150;BME280;32503;47.748;8.960;2023-11-22T13:10:30;97756.38;;;6.99;58.73
3150;BME280;32503;47.748;8.960;2023-11-22T13:12:57;97751.59;;;6.96;58.48
3150;BME280;32503;47.748;8.960;2023-11-22T13:15:24;97754.78;;;6.98;58.17
3150;BME280;32503;47.748;8.960;2023-11-22T13:17:52;97749.66;;;6.88;59.25
3150;BME280;32503;47.748;8.960;2023-11-22T13:20:23;97749.97;;;6.86;58.85
3150;BME280;32503;47.748;8.960;2023-11-22T13:22:53;97744.59;;;6.86;59.53
3150;BME280;32503;47.748;8.960;2023-11-22T13:25:20;97747.44;;;6.90;59.37
3150;BME280;32503;47.748;8.960;2023-11-22T13:27:50;97746.66;;;6.89;58.67